sensor_id;sensor_type;location;lat;lon;timestamp;pressure;altitude;pressure_sealevel;temperature;humidity
75247;BME280;63844;50.042;19.224;2022-10-31T00:00:22;99415.86;;;9.06;83.00
75247;BME280;63844;50.042;19.224;2022-10-31T00:03:08;99412.84;;;9.03;82.35
75247;BME280;63844;50.042;19.224;2022-10-31T00:05:34;99412.13;;;8.96;82.27
75247;BME280;63844;50.042;19.224;2022-10-31T00:08:01;99413.98;;;8.92;82.59
75247;BME280;63844;50.042;19.224;2022-10-31T00:10:27;99412.64;;;8.90;82.80
75247;BME280;63844;50.042;19.224;2022-10-31T00:12:53;99416.79;;;8.89;82.53
75247;BME280;63844;50.042;19.224;2022-10-31T00:15:20;99419.38;;;8.87;82.54
75247;BME280;63844;50.042;19.224;2022-10-31T00:17:46;99418.53;;;8.86;82.57
75247;BME280;63844;50.042;19.224;2022-10-31T00:20:12;99417.77;;;8.87;83.04
75247;BME280;63844;50.042;19.224;2022-10-31T00:22:39;99413.86;;;8.84;83.00
75247;BME280;63844;50.042;19.224;2022-10-31T00:25:05;99415.27;;;8.84;83.15
75247;BME280;63844;50.042;19.224;2022-10-31T00:27:31;99416.04;;;8.86;83.07
75247;BME280;63844;50.042;19.224;2022-10-31T00:29:58;99418.45;;;8.84;82.56
75247;BME280;63844;50.042;19.224;2022-10-31T00:32:24;99419.05;;;8.76;83.15
75247;BME280;63844;50.042;19.224;2022-10-31T00:34:50;99420.60;;;8.73;82.80
75247;BME280;63844;50.042;19.224;2022-10-31T00:37:16;99424.05;;;8.67;82.95
75247;BME280;63844;50.042;19.224;2022-10-31T00:39:43;99422.09;;;8.61;82.73
75247;BME280;63844;50.042;19.224;2022-10-31T00:42:11;99424.55;;;8.54;82.49
75247;BME280;63844;50.042;19.224;2022-10-31T00:44:37;99423.88;;;8.47;82.58
75247;BME280;63844;50.042;19.224;2022-10-31T00:47:03;99426.38;;;8.39;83.63
75247;BME280;63844;50.042;19.224;2022-10-31T00:49:29;99428.61;;;8.37;82.66
75247;BME280;63844;50.042;19.224;2022-10-31T00:51:56;99425.79;;;8.32;82.84
75247;BME280;63844;50.042;19.224;2022-10-31T00:54:22;99422.54;;;8.38;83.16
75247;BME280;63844;50.042;19.224;2022-10-31T00:56:48;99424.28;;;8.39;83.19
75247;BME280;63844;50.042;19.224;2022-10-31T00:59:15;99425.16;;;8.38;83.15
75247;BME280;63844;50.042;19.224;2022-10-31T01:01:41;99428.02;;;8.34;83.07
75247;BME280;63844;50.042;19.224;2022-10-31T01:04:07;99426.94;;;8.31;83.00
75247;BME280;63844;50.042;19.224;2022-10-31T01:06:34;99426.85;;;8.29;82.68
75247;BME280;63844;50.042;19.224;2022-10-31T01:09:00;99429.02;;;8.24;82.65
75247;BME280;63844;50.042;19.224;2022-10-31T01:11:26;99428.43;;;8.18;82.71
75247;BME280;63844;50.042;19.224;2022-10-31T01:13:53;99423.23;;;8.12;82.47
75247;BME280;63844;50.042;19.224;2022-10-31T01:16:22;99427.20;;;8.07;82.29
75247;BME280;63844;50.042;19.224;2022-10-31T01:18:50;99426.02;;;8.03;82.35
75247;BME280;63844;50.042;19.224;2022-10-31T01:21:19;99429.00;;;7.96;82.38
75247;BME280;63844;50.042;19.224;2022-10-31T01:23:46;99428.52;;;7.95;82.17
75247;BME280;63844;50.042;19.224;2022-10-31T01:26:19;99428.89;;;7.91;83.13
75247;BME280;63844;50.042;19.224;2022-10-31T01:28:49;99427.04;;;7.93;83.28
75247;BME280;63844;50.042;19.224;2022-10-31T01:31:17;99427.29;;;7.87;83.31
75247;BME280;63844;50.042;19.224;2022-10-31T01:33:43;99425.52;;;7.87;83.33
75247;BME280;63844;50.042;19.224;2022-10-31T01:36:12;99424.35;;;7.86;83.12
75247;BME280;63844;50.042;19.224;2022-10-31T01:38:39;99426.64;;;7.82;83.23
75247;BME280;63844;50.042;19.224;2022-10-31T01:41:05;99425.73;;;7.79;82.99
75247;BME280;63844;50.042;19.224;2022-10-31T01:46:19;99422.89;;;7.76;83.77
75247;BME280;63844;50.042;19.224;2022-10-31T01:48:47;99423.23;;;7.76;83.04
75247;BME280;63844;50.042;19.224;2022-10-31T01:51:16;99422.87;;;7.69;82.45
75247;BME280;63844;50.042;19.224;2022-10-31T01:53:44;99425.96;;;7.63;82.59
75247;BME280;63844;50.042;19.224;2022-10-31T01:56:13;99429.99;;;7.60;83.03
75247;BME280;63844;50.042;19.224;2022-10-31T01:58:39;99431.42;;;7.56;82.70
75247;BME280;63844;50.042;19.224;2022-10-31T02:01:06;99431.80;;;7.56;83.10
75247;BME280;63844;50.042;19.224;2022-10-31T02:03:32;99431.08;;;7.56;83.07
75247;BME280;63844;50.042;19.224;2022-10-31T02:05:59;99432.40;;;7.58;83.66
75247;BME280;63844;50.042;19.224;2022-10-31T02:08:33;99431.06;;;7.56;83.79
75247;BME280;63844;50.042;19.224;2022-10-31T02:11:01;99427.58;;;7.55;83.78
75247;BME280;63844;50.042;19.224;2022-10-31T02:13:28;99426.48;;;7.56;83.68
75247;BME280;63844;50.042;19.224;2022-10-31T02:15:58;99427.08;;;7.55;83.47
75247;BME280;63844;50.042;19.224;2022-10-31T02:18:28;99430.74;;;7.52;83.51
75247;BME280;63844;50.042;19.224;2022-10-31T02:38:05;99431.47;;;7.32;83.22
75247;BME280;63844;50.042;19.224;2022-10-31T02:41:00;99434.00;;;7.30;82.90
75247;BME280;63844;50.042;19.224;2022-10-31T02:43:45;99434.77;;;7.33;83.54
75247;BME280;63844;50.042;19.224;2022-10-31T02:46:38;99432.90;;;7.35;83.69
75247;BME280;63844;50.042;19.224;2022-10-31T02:49:36;99432.74;;;7.38;84.15
75247;BME280;63844;50.042;19.224;2022-10-31T02:52:00;99436.78;;;7.43;84.09
75247;BME280;63844;50.042;19.224;2022-10-31T02:54:27;99438.83;;;7.48;84.25
75247;BME280;63844;50.042;19.224;2022-10-31T02:57:02;99443.39;;;7.52;83.75
75247;BME280;63844;50.042;19.224;2022-10-31T02:59:31;99440.92;;;7.52;83.76
75247;BME280;63844;50.042;19.224;2022-10-31T03:02:11;99444.16;;;7.55;83.51
75247;BME280;63844;50.042;19.224;2022-10-31T03:07:23;99447.60;;;7.49;83.77
75247;BME280;63844;50.042;19.224;2022-10-31T03:10:20;99449.74;;;7.48;84.23
75247;BME280;63844;50.042;19.224;2022-10-31T03:15:43;99451.89;;;7.44;83.39
75247;BME280;63844;50.042;19.224;2022-10-31T03:18:17;99451.09;;;7.41;83.55
75247;BME280;63844;50.042;19.224;2022-10-31T03:20:53;99453.44;;;7.40;83.07
75247;BME280;63844;50.042;19.224;2022-10-31T03:23:22;99456.45;;;7.36;83.50
75247;BME280;63844;50.042;19.224;2022-10-31T03:25:52;99456.91;;;7.34;83.32
75247;BME280;63844;50.042;19.224;2022-10-31T03:28:25;99454.10;;;7.34;83.45
75247;BME280;63844;50.042;19.224;2022-10-31T03:30:54;99455.76;;;7.32;84.17
75247;BME280;63844;50.042;19.224;2022-10-31T03:33:27;99453.65;;;7.32;84.46
75247;BME280;63844;50.042;19.224;2022-10-31T03:35:57;99451.63;;;7.34;84.18
75247;BME280;63844;50.042;19.224;2022-10-31T03:38:27;99456.00;;;7.31;84.53
75247;BME280;63844;50.042;19.224;2022-10-31T03:40:57;99458.24;;;7.31;84.20
75247;BME280;63844;50.042;19.224;2022-10-31T03:43:30;99457.13;;;7.29;84.16
75247;BME280;63844;50.042;19.224;2022-10-31T03:45:58;99459.52;;;7.27;83.93
75247;BME280;63844;50.042;19.224;2022-10-31T03:48:25;99461.05;;;7.24;84.27
75247;BME280;63844;50.042;19.224;2022-10-31T03:51:20;99465.08;;;7.17;83.75
75247;BME280;63844;50.042;19.224;2022-10-31T03:54:01;99466.15;;;7.12;83.80
75247;BME280;63844;50.042;19.224;2022-10-31T03:59:21;99475.23;;;7.06;83.86
75247;BME280;63844;50.042;19.224;2022-10-31T04:01:53;99475.17;;;7.03;83.30
75247;BME280;63844;50.042;19.224;2022-10-31T04:04:22;99471.01;;;6.98;83.18
75247;BME280;63844;50.042;19.224;2022-10-31T04:06:50;99470.38;;;6.96;83.65
75247;BME280;63844;50.042;19.224;2022-10-31T04:09:18;99476.54;;;6.96;83.66
75247;BME280;63844;50.042;19.224;2022-10-31T04:11:49;99476.50;;;6.97;84.06
75247;BME280;63844;50.042;19.224;2022-10-31T04:14:16;99480.08;;;6.96;84.20
75247;BME280;63844;50.042;19.224;2022-10-31T04:16:44;99476.45;;;6.94;84.54
75247;BME280;63844;50.042;19.224;2022-10-31T04:19:11;99477.99;;;6.95;84.36
75247;BME280;63844;50.042;19.224;2022-10-31T04:21:38;99478.17;;;6.95;84.56
75247;BME280;63844;50.042;19.224;2022-10-31T04:24:05;99473.86;;;6.93;84.12
75247;BME280;63844;50.042;19.224;2022-10-31T04:26:31;99479.98;;;6.90;84.37
75247;BME280;63844;50.042;19.224;2022-10-31T04:28:58;99477.15;;;6.86;83.82
75247;BME280;63844;50.042;19.224;2022-10-31T04:31:24;99476.31;;;6.81;83.98
75247;BME280;63844;50.042;19.224;2022-10-31T04:33:50;99476.23;;;6.79;83.70
75247;BME280;63844;50.042;19.224;2022-10-31T04:36:16;99478.31;;;6.75;83.70
75247;BME280;63844;50.042;19.224;2022-10-31T04:38:43;99480.63;;;6.71;83.56
75247;BME280;63844;50.042;19.224;2022-10-31T04:41:09;99481.20;;;6.65;83.70
75247;BME280;63844;50.042;19.224;2022-10-31T04:43:35;99483.00;;;6.60;83.57
75247;BME280;63844;50.042;19.224;2022-10-31T04:46:02;99483.73;;;6.55;83.37
75247;BME280;63844;50.042;19.224;2022-10-31T04:48:29;99485.73;;;6.54;83.51
75247;BME280;63844;50.042;19.224;2022-10-31T04:51:00;99483.29;;;6.53;83.80
75247;BME280;63844;50.042;19.224;2022-10-31T04:53:27;99486.95;;;6.54;84.20
75247;BME280;63844;50.042;19.224;2022-10-31T04:55:53;99489.92;;;6.54;84.28
75247;BME280;63844;50.042;19.224;2022-10-31T04:58:19;99491.23;;;6.52;84.39
75247;BME280;63844;50.042;19.224;2022-10-31T05:00:46;99491.70;;;6.54;84.55
75247;BME280;63844;50.042;19.224;2022-10-31T05:03:12;99491.13;;;6.55;84.24
75247;BME280;63844;50.042;19.224;2022-10-31T05:05:38;99490.56;;;6.51;84.22
75247;BME280;63844;50.042;19.224;2022-10-31T05:08:05;99491.52;;;6.49;84.11
75247;BME280;63844;50.042;19.224;2022-10-31T05:10:31;99495.55;;;6.46;83.92
75247;BME280;63844;50.042;19.224;2022-10-31T05:13:00;99493.96;;;6.42;83.60
75247;BME280;63844;50.042;19.224;2022-10-31T05:15:27;99494.07;;;6.39;83.65
75247;BME280;63844;50.042;19.224;2022-10-31T05:17:54;99496.10;;;6.37;83.61
75247;BME280;63844;50.042;19.224;2022-10-31T05:20:23;99492.41;;;6.33;83.40
75247;BME280;63844;50.042;19.224;2022-10-31T05:22:51;99498.14;;;6.29;83.67
75247;BME280;63844;50.042;19.224;2022-10-31T05:25:19;99498.08;;;6.27;83.23
75247;BME280;63844;50.042;19.224;2022-10-31T05:27:47;99500.52;;;6.23;83.37
75247;BME280;63844;50.042;19.224;2022-10-31T05:30:31;99502.90;;;6.21;83.66
75247;BME280;63844;50.042;19.224;2022-10-31T05:32:58;99504.29;;;6.21;83.91
75247;BME280;63844;50.042;19.224;2022-10-31T05:35:30;99507.11;;;6.25;83.68
75247;BME280;63844;50.042;19.224;2022-10-31T05:37:57;99509.70;;;6.26;84.23
75247;BME280;63844;50.042;19.224;2022-10-31T05:40:24;99511.05;;;6.28;84.32
75247;BME280;63844;50.042;19.224;2022-10-31T05:42:52;99513.33;;;6.28;84.46
75247;BME280;63844;50.042;19.224;2022-10-31T05:45:20;99516.09;;;6.29;84.41
75247;BME280;63844;50.042;19.224;2022-10-31T05:47:59;99521.48;;;6.31;84.36
75247;BME280;63844;50.042;19.224;2022-10-31T05:50:27;99518.98;;;6.32;83.88
75247;BME280;63844;50.042;19.224;2022-10-31T05:53:04;99519.50;;;6.32;83.71
75247;BME280;63844;50.042;19.224;2022-10-31T05:55:31;99522.53;;;6.31;83.86
75247;BME280;63844;50.042;19.224;2022-10-31T05:57:58;99528.11;;;6.32;83.70
75247;BME280;63844;50.042;19.224;2022-10-31T06:00:25;99527.30;;;6.30;83.56
75247;BME280;63844;50.042;19.224;2022-10-31T06:03:03;99529.33;;;6.28;83.32
75247;BME280;63844;50.042;19.224;2022-10-31T06:05:30;99525.60;;;6.25;83.60
75247;BME280;63844;50.042;19.224;2022-10-31T06:07:57;99527.20;;;6.24;83.59
75247;BME280;63844;50.042;19.224;2022-10-31T06:10:24;99526.27;;;6.25;84.69
75247;BME280;63844;50.042;19.224;2022-10-31T06:12:51;99523.23;;;6.27;84.84
75247;BME280;63844;50.042;19.224;2022-10-31T06:15:17;99524.09;;;6.31;84.56
75247;BME280;63844;50.042;19.224;2022-10-31T06:17:44;99526.09;;;6.38;84.56
75247;BME280;63844;50.042;19.224;2022-10-31T06:20:11;99523.66;;;6.46;85.12
75247;BME280;63844;50.042;19.224;2022-10-31T06:22:37;99528.09;;;6.54;85.10
75247;BME280;63844;50.042;19.224;2022-10-31T06:25:04;99533.35;;;6.63;84.67
75247;BME280;63844;50.042;19.224;2022-10-31T06:27:30;99537.27;;;6.70;84.65
75247;BME280;63844;50.042;19.224;2022-10-31T06:29:57;99539.92;;;6.78;84.60
75247;BME280;63844;50.042;19.224;2022-10-31T06:32:23;99539.30;;;6.85;84.20
75247;BME280;63844;50.042;19.224;2022-10-31T06:34:49;99542.36;;;6.92;84.22
75247;BME280;63844;50.042;19.224;2022-10-31T06:37:16;99542.76;;;6.95;84.27
75247;BME280;63844;50.042;19.224;2022-10-31T06:39:42;99547.16;;;6.99;83.78
75247;BME280;63844;50.042;19.224;2022-10-31T06:42:08;99545.95;;;7.03;83.73
75247;BME280;63844;50.042;19.224;2022-10-31T06:44:35;99549.14;;;7.07;83.89
75247;BME280;63844;50.042;19.224;2022-10-31T06:47:01;99552.31;;;7.10;84.65
75247;BME280;63844;50.042;19.224;2022-10-31T06:49:27;99557.30;;;7.17;84.25
75247;BME280;63844;50.042;19.224;2022-10-31T06:51:54;99558.16;;;7.25;84.24
75247;BME280;63844;50.042;19.224;2022-10-31T06:54:20;99561.02;;;7.32;84.52
75247;BME280;63844;50.042;19.224;2022-10-31T06:56:47;99562.86;;;7.43;85.16
75247;BME280;63844;50.042;19.224;2022-10-31T06:59:14;99565.00;;;7.54;85.10
75247;BME280;63844;50.042;19.224;2022-10-31T07:01:41;99561.30;;;7.62;85.43
75247;BME280;63844;50.042;19.224;2022-10-31T07:04:09;99560.70;;;7.72;85.13
75247;BME280;63844;50.042;19.224;2022-10-31T07:06:36;99557.20;;;7.83;84.79
75247;BME280;63844;50.042;19.224;2022-10-31T07:09:02;99556.31;;;7.95;85.35
75247;BME280;63844;50.042;19.224;2022-10-31T07:11:28;99558.34;;;8.08;85.15
75247;BME280;63844;50.042;19.224;2022-10-31T07:13:55;99558.27;;;8.21;85.34
75247;BME280;63844;50.042;19.224;2022-10-31T07:16:22;99558.14;;;8.34;86.82
75247;BME280;63844;50.042;19.224;2022-10-31T07:18:48;99565.26;;;8.52;87.79
75247;BME280;63844;50.042;19.224;2022-10-31T07:21:15;99561.27;;;8.69;87.09
75247;BME280;63844;50.042;19.224;2022-10-31T07:23:41;99562.35;;;8.86;87.50
75247;BME280;63844;50.042;19.224;2022-10-31T07:26:09;99561.17;;;9.03;87.88
75247;BME280;63844;50.042;19.224;2022-10-31T07:28:36;99558.31;;;9.17;87.41
75247;BME280;63844;50.042;19.224;2022-10-31T07:31:02;99559.79;;;9.33;86.88
75247;BME280;63844;50.042;19.224;2022-10-31T07:33:28;99557.73;;;9.49;86.75
75247;BME280;63844;50.042;19.224;2022-10-31T07:35:54;99560.87;;;9.63;86.85
75247;BME280;63844;50.042;19.224;2022-10-31T07:38:21;99561.80;;;9.76;86.52
75247;BME280;63844;50.042;19.224;2022-10-31T07:40:52;99568.86;;;9.89;86.29
75247;BME280;63844;50.042;19.224;2022-10-31T07:43:19;99568.09;;;10.00;85.99
75247;BME280;63844;50.042;19.224;2022-10-31T07:45:50;99569.83;;;10.10;85.72
75247;BME280;63844;50.042;19.224;2022-10-31T07:48:17;99576.13;;;10.21;85.07
75247;BME280;63844;50.042;19.224;2022-10-31T07:50:44;99577.80;;;10.30;84.60
75247;BME280;63844;50.042;19.224;2022-10-31T07:53:11;99577.33;;;10.38;84.69
75247;BME280;63844;50.042;19.224;2022-10-31T07:55:38;99577.01;;;10.47;84.57
75247;BME280;63844;50.042;19.224;2022-10-31T07:58:06;99575.02;;;10.58;84.21
75247;BME280;63844;50.042;19.224;2022-10-31T08:00:35;99569.48;;;10.65;84.51
75247;BME280;63844;50.042;19.224;2022-10-31T08:03:04;99569.95;;;10.72;84.08
75247;BME280;63844;50.042;19.224;2022-10-31T08:05:31;99569.31;;;10.80;83.69
75247;BME280;63844;50.042;19.224;2022-10-31T08:07:58;99569.13;;;10.89;83.64
75247;BME280;63844;50.042;19.224;2022-10-31T08:10:26;99565.73;;;10.99;83.35
75247;BME280;63844;50.042;19.224;2022-10-31T08:12:57;99573.16;;;11.11;82.97
75247;BME280;63844;50.042;19.224;2022-10-31T08:15:24;99574.46;;;11.22;82.79
75247;BME280;63844;50.042;19.224;2022-10-31T08:17:51;99576.38;;;11.29;82.11
75247;BME280;63844;50.042;19.224;2022-10-31T08:20:18;99573.56;;;11.37;82.21
75247;BME280;63844;50.042;19.224;2022-10-31T08:22:53;99569.77;;;11.44;81.99
75247;BME280;63844;50.042;19.224;2022-10-31T08:25:19;99571.11;;;11.52;81.58
75247;BME280;63844;50.042;19.224;2022-10-31T08:27:53;99567.76;;;11.60;81.33
75247;BME280;63844;50.042;19.224;2022-10-31T08:30:21;99566.56;;;11.68;80.82
75247;BME280;63844;50.042;19.224;2022-10-31T08:33:09;99570.08;;;11.80;81.14
75247;BME280;63844;50.042;19.224;2022-10-31T08:35:36;99568.70;;;11.88;80.44
75247;BME280;63844;50.042;19.224;2022-10-31T08:38:02;99569.53;;;11.98;80.79
75247;BME280;63844;50.042;19.224;2022-10-31T08:40:30;99570.75;;;12.07;80.15
75247;BME280;63844;50.042;19.224;2022-10-31T08:43:06;99570.27;;;12.14;79.74
75247;BME280;63844;50.042;19.224;2022-10-31T08:45:33;99565.98;;;12.25;80.34
75247;BME280;63844;50.042;19.224;2022-10-31T08:48:02;99563.23;;;12.36;80.15
75247;BME280;63844;50.042;19.224;2022-10-31T08:50:30;99564.56;;;12.48;79.85
75247;BME280;63844;50.042;19.224;2022-10-31T08:53:17;99560.38;;;12.55;79.40
75247;BME280;63844;50.042;19.224;2022-10-31T08:55:45;99559.78;;;12.67;79.44
75247;BME280;63844;50.042;19.224;2022-10-31T08:58:22;99562.25;;;12.78;78.71
75247;BME280;63844;50.042;19.224;2022-10-31T09:00:51;99559.41;;;12.91;78.30
75247;BME280;63844;50.042;19.224;2022-10-31T09:05:46;99562.14;;;13.12;77.86
75247;BME280;63844;50.042;19.224;2022-10-31T09:08:12;99560.31;;;13.20;77.63
75247;BME280;63844;50.042;19.224;2022-10-31T09:10:41;99561.26;;;13.30;77.52
75247;BME280;63844;50.042;19.224;2022-10-31T09:13:17;99557.80;;;13.47;75.91
75247;BME280;63844;50.042;19.224;2022-10-31T09:15:45;99560.30;;;13.65;76.71
75247;BME280;63844;50.042;19.224;2022-10-31T09:18:14;99561.16;;;13.76;74.68
75247;BME280;63844;50.042;19.224;2022-10-31T09:20:41;99561.04;;;13.85;74.23
75247;BME280;63844;50.042;19.224;2022-10-31T09:23:11;99555.27;;;13.96;74.54
75247;BME280;63844;50.042;19.224;2022-10-31T09:25:38;99559.89;;;14.08;73.91
75247;BME280;63844;50.042;19.224;2022-10-31T09:28:06;99557.10;;;14.18;74.10
75247;BME280;63844;50.042;19.224;2022-10-31T09:30:34;99565.16;;;14.27;72.57
75247;BME280;63844;50.042;19.224;2022-10-31T09:33:14;99564.42;;;14.40;72.77
75247;BME280;63844;50.042;19.224;2022-10-31T09:35:41;99562.03;;;14.51;73.16
75247;BME280;63844;50.042;19.224;2022-10-31T09:38:13;99560.55;;;14.58;72.48
75247;BME280;63844;50.042;19.224;2022-10-31T09:40:43;99565.15;;;14.69;73.22
75247;BME280;63844;50.042;19.224;2022-10-31T09:45:50;99563.02;;;14.97;71.53
75247;BME280;63844;50.042;19.224;2022-10-31T09:51:40;99565.73;;;15.19;69.56
75247;BME280;63844;50.042;19.224;2022-10-31T09:54:15;99558.44;;;15.32;69.35
75247;BME280;63844;50.042;19.224;2022-10-31T09:56:43;99557.05;;;15.43;68.28
75247;BME280;63844;50.042;19.224;2022-10-31T09:59:17;99558.98;;;15.53;68.39
75247;BME280;63844;50.042;19.224;2022-10-31T10:01:54;99555.80;;;15.57;67.01
75247;BME280;63844;50.042;19.224;2022-10-31T10:07:02;99554.92;;;15.76;67.60
75247;BME280;63844;50.042;19.224;2022-10-31T10:09:32;99553.39;;;15.84;67.88
75247;BME280;63844;50.042;19.224;2022-10-31T10:12:35;99552.98;;;15.94;67.09
75247;BME280;63844;50.042;19.224;2022-10-31T10:18:02;99550.27;;;16.12;66.73
75247;BME280;63844;50.042;19.224;2022-10-31T10:24:03;99545.91;;;16.35;65.85
75247;BME280;63844;50.042;19.224;2022-10-31T10:26:40;99544.17;;;16.45;65.67
75247;BME280;63844;50.042;19.224;2022-10-31T10:31:54;99542.75;;;16.58;65.68
75247;BME280;63844;50.042;19.224;2022-10-31T10:34:38;99537.17;;;16.63;65.16
75247;BME280;63844;50.042;19.224;2022-10-31T10:37:38;99543.39;;;16.72;65.97
75247;BME280;63844;50.042;19.224;2022-10-31T10:40:24;99542.20;;;16.78;64.83
75247;BME280;63844;50.042;19.224;2022-10-31T10:43:20;99540.81;;;16.87;65.50
75247;BME280;63844;50.042;19.224;2022-10-31T10:46:18;99539.98;;;16.92;66.16
75247;BME280;63844;50.042;19.224;2022-10-31T10:49:16;99536.73;;;16.97;65.16
75247;BME280;63844;50.042;19.224;2022-10-31T10:52:20;99539.34;;;17.06;64.78
75247;BME280;63844;50.042;19.224;2022-10-31T10:55:16;99534.39;;;17.16;64.00
75247;BME280;63844;50.042;19.224;2022-10-31T10:58:00;99525.37;;;17.23;63.39
75247;BME280;63844;50.042;19.224;2022-10-31T11:00:37;99528.91;;;17.33;63.99
75247;BME280;63844;50.042;19.224;2022-10-31T11:03:04;99527.95;;;17.41;64.31
75247;BME280;63844;50.042;19.224;2022-10-31T11:05:41;99524.95;;;17.51;63.75
75247;BME280;63844;50.042;19.224;2022-10-31T11:08:11;99524.71;;;17.60;
75247;BME280;63844;50.042;19.224;2022-10-31T11:11:22;99522.91;;;17.66;64.72
75247;BME280;63844;50.042;19.224;2022-10-31T11:13:45;99522.77;;;17.72;63.67
75247;BME280;63844;50.042;19.224;2022-10-31T11:16:28;99518.34;;;17.80;62.85
75247;BME280;63844;50.042;19.224;2022-10-31T11:19:27;99512.73;;;17.89;63.01
75247;BME280;63844;50.042;19.224;2022-10-31T11:21:53;99509.98;;;17.98;61.93
75247;BME280;63844;50.042;19.224;2022-10-31T11:24:25;99506.27;;;18.03;62.24
75247;BME280;63844;50.042;19.224;2022-10-31T11:27:10;99505.73;;;18.11;61.86
75247;BME280;63844;50.042;19.224;2022-10-31T11:29:39;99503.47;;;18.19;61.88
75247;BME280;63844;50.042;19.224;2022-10-31T11:32:17;99499.62;;;18.28;62.59
75247;BME280;63844;50.042;19.224;2022-10-31T11:34:46;99497.00;;;18.37;62.22
75247;BME280;63844;50.042;19.224;2022-10-31T11:37:20;99497.81;;;18.44;61.23
75247;BME280;63844;50.042;19.224;2022-10-31T11:39:54;99496.41;;;18.53;59.61
75247;BME280;63844;50.042;19.224;2022-10-31T11:42:23;99493.98;;;18.60;59.06
75247;BME280;63844;50.042;19.224;2022-10-31T11:44:52;99493.84;;;18.68;59.05
75247;BME280;63844;50.042;19.224;2022-10-31T11:47:28;99494.78;;;18.73;59.18
75247;BME280;63844;50.042;19.224;2022-10-31T11:49:56;99491.70;;;18.76;58.09
75247;BME280;63844;50.042;19.224;2022-10-31T11:52:25;99490.77;;;18.82;57.91
75247;BME280;63844;50.042;19.224;2022-10-31T11:54:54;99489.55;;;18.91;56.40
75247;BME280;63844;50.042;19.224;2022-10-31T11:57:27;99493.13;;;19.01;56.76
75247;BME280;63844;50.042;19.224;2022-10-31T11:59:56;99486.86;;;19.06;56.53
75247;BME280;63844;50.042;19.224;2022-10-31T12:02:24;99485.59;;;19.11;56.28
75247;BME280;63844;50.042;19.224;2022-10-31T12:05:18;99481.89;;;19.19;56.61
75247;BME280;63844;50.042;19.224;2022-10-31T12:07:46;99478.89;;;19.34;56.37
75247;BME280;63844;50.042;19.224;2022-10-31T12:10:13;99478.89;;;19.41;55.88
75247;BME280;63844;50.042;19.224;2022-10-31T12:12:42;99476.16;;;19.47;56.19
75247;BME280;63844;50.042;19.224;2022-10-31T12:15:31;99475.86;;;19.53;56.15
75247;BME280;63844;50.042;19.224;2022-10-31T12:18:03;99470.20;;;19.58;55.67
75247;BME280;63844;50.042;19.224;2022-10-31T12:21:13;99468.00;;;19.67;56.07
75247;BME280;63844;50.042;19.224;2022-10-31T12:26:39;99464.66;;;19.89;54.66
75247;BME280;63844;50.042;19.224;2022-10-31T12:31:55;99461.69;;;20.05;53.64
75247;BME280;63844;50.042;19.224;2022-10-31T12:40:25;99458.23;;;20.41;54.34
75247;BME280;63844;50.042;19.224;2022-10-31T12:45:59;99454.78;;;20.78;54.77
75247;BME280;63844;50.042;19.224;2022-10-31T12:49:33;99450.88;;;20.92;52.82
75247;BME280;63844;50.042;19.224;2022-10-31T12:57:48;99443.90;;;21.42;54.22
75247;BME280;63844;50.042;19.224;2022-10-31T13:00:19;99435.61;;;21.51;52.61
75247;BME280;63844;50.042;19.224;2022-10-31T13:02:59;99437.74;;;21.63;53.46
75247;BME280;63844;50.042;19.224;2022-10-31T13:05:31;99432.78;;;21.78;52.63
75247;BME280;63844;50.042;19.224;2022-10-31T13:08:10;99434.80;;;21.86;49.99
75247;BME280;63844;50.042;19.224;2022-10-31T13:10:46;99433.55;;;21.84;49.29
75247;BME280;63844;50.042;19.224;2022-10-31T13:13:27;99428.84;;;21.91;48.74
75247;BME280;63844;50.042;19.224;2022-10-31T13:16:00;99431.20;;;21.88;50.46
75247;BME280;63844;50.042;19.224;2022-10-31T13:18:49;99431.81;;;22.01;53.24
75247;BME280;63844;50.042;19.224;2022-10-31T13:21:24;99428.20;;;22.11;50.82
75247;BME280;63844;50.042;19.224;2022-10-31T13:23:52;99426.60;;;22.16;50.21
75247;BME280;63844;50.042;19.224;2022-10-31T13:26:35;99424.44;;;22.14;49.32
75247;BME280;63844;50.042;19.224;2022-10-31T13:31:41;99420.72;;;22.22;49.92
75247;BME280;63844;50.042;19.224;2022-10-31T13:34:29;99422.28;;;22.29;49.26
75247;BME280;63844;50.042;19.224;2022-10-31T13:37:09;99420.49;;;22.32;48.57
75247;BME280;63844;50.042;19.224;2022-10-31T13:42:15;99420.62;;;22.16;48.56
75247;BME280;63844;50.042;19.224;2022-10-31T13:44:45;99419.80;;;22.07;49.43
75247;BME280;63844;50.042;19.224;2022-10-31T13:47:24;99416.38;;;22.10;50.39
75247;BME280;63844;50.042;19.224;2022-10-31T13:49:51;99417.54;;;22.06;50.18
75247;BME280;63844;50.042;19.224;2022-10-31T13:52:29;99416.11;;;21.92;49.70
75247;BME280;63844;50.042;19.224;2022-10-31T13:54:55;99421.79;;;21.76;50.50
75247;BME280;63844;50.042;19.224;2022-10-31T13:59:59;99421.22;;;21.56;50.31
75247;BME280;63844;50.042;19.224;2022-10-31T14:02:31;99419.65;;;21.45;50.88
75247;BME280;63844;50.042;19.224;2022-10-31T14:05:01;99418.98;;;21.41;51.18
75247;BME280;63844;50.042;19.224;2022-10-31T14:07:30;99416.90;;;21.37;51.63
75247;BME280;63844;50.042;19.224;2022-10-31T14:10:04;99416.86;;;21.32;50.92
75247;BME280;63844;50.042;19.224;2022-10-31T14:12:39;99416.00;;;21.21;53.02
75247;BME280;63844;50.042;19.224;2022-10-31T14:15:24;99419.00;;;21.11;54.56
75247;BME280;63844;50.042;19.224;2022-10-31T14:17:55;99418.95;;;20.98;54.58
75247;BME280;63844;50.042;19.224;2022-10-31T14:20:42;99418.14;;;20.81;55.09
75247;BME280;63844;50.042;19.224;2022-10-31T14:26:06;99419.46;;;20.41;55.13
75247;BME280;63844;50.042;19.224;2022-10-31T14:28:35;99417.29;;;20.28;55.60
75247;BME280;63844;50.042;19.224;2022-10-31T14:31:01;99413.98;;;20.22;55.77
75247;BME280;63844;50.042;19.224;2022-10-31T14:33:29;99412.67;;;20.15;56.91
75247;BME280;63844;50.042;19.224;2022-10-31T14:47:36;99416.56;;;19.02;60.96